Archer, Florida
Current Conditions -  °F | °C
As of 10:53 PM on Tuesday 21 Oct 2014 (Local Time) from KGNV Reporting Station
Clear Clear  
Wind Chill: 63°   Ceiling: Unl
Heat Index: 63°   Visibility: 10mi
Dew Point: 62°   Wind: 3mph
Humidity: 97%   Direction: 300°WNW
Pressure: 29.97"   Gusts: NA
Location:  29.53°N, 82.52°W
Report Text: KGNV 220253Z AUTO 30003KT 10SM CLR 17/17 A2997 RMK AO2 SLP146 T01720167 51011
Loading
Personal Weather Stations






























Interactive Weather Map
Tropical Storm Tracking
New forecast layout! Learn more

10-Day Weather Forecast

Advertisements
Track Severe Weather on mobile